CPA234 VHHH-RJTT
Flight info
| Callsign | CPA234 |
|---|---|
| Flight time | N/A |
| Altitude | 39000 |
| Route | DALOL1A DALOL V631 ENVAR M750 BILLY Y21 AKSEL AKSELN |
| Aircraft | A35K/H-SDE2E3GHIJ3J4J5LM1ORWXY/LB1D1 |
Departure
| Time | 2026-05-06 12:29 |
|---|---|
| Airport | Hong Kong International Airport (VHHH) |
Arrival
| Time | N/A |
|---|---|
| Airport | Tokyo Haneda International Airport (RJTT) |
| Time | Latitude | Longitude | Altitude | Speed | Heading |
|---|---|---|---|---|---|
| 2026-05-06 12:15 | 22.30566 | 113.91352 | 36 ft | 0 kts | 68° |
| 2026-05-06 12:20 | 22.30560 | 113.91335 | 35 ft | 3 kts | 68° |
| 2026-05-06 12:20 | 22.30553 | 113.91317 | 35 ft | 3 kts | 75° |
| 2026-05-06 12:20 | 22.30551 | 113.91295 | 32 ft | 3 kts | 112° |
| 2026-05-06 12:21 | 22.30559 | 113.91277 | 34 ft | 3 kts | 117° |
| 2026-05-06 12:21 | 22.30569 | 113.91259 | 34 ft | 3 kts | 141° |
| 2026-05-06 12:21 | 22.30578 | 113.91252 | 33 ft | 0 kts | 158° |
| 2026-05-06 12:22 | 22.30577 | 113.91252 | 33 ft | 1 kts | 158° |
| 2026-05-06 12:23 | 22.30568 | 113.91254 | 35 ft | 3 kts | 167° |
| 2026-05-06 12:23 | 22.30531 | 113.91264 | 36 ft | 8 kts | 163° |
| 2026-05-06 12:23 | 22.30465 | 113.91289 | 36 ft | 12 kts | 161° |
| 2026-05-06 12:23 | 22.30392 | 113.91283 | 36 ft | 10 kts | 219° |
| 2026-05-06 12:24 | 22.30353 | 113.91208 | 36 ft | 13 kts | 251° |
| 2026-05-06 12:24 | 22.30318 | 113.91099 | 36 ft | 18 kts | 251° |
| 2026-05-06 12:24 | 22.30277 | 113.90969 | 36 ft | 19 kts | 251° |
| 2026-05-06 12:24 | 22.30233 | 113.90832 | 36 ft | 18 kts | 251° |
| 2026-05-06 12:25 | 22.30175 | 113.90727 | 36 ft | 11 kts | 200° |
| 2026-05-06 12:25 | 22.30112 | 113.90708 | 36 ft | 9 kts | 223° |
| 2026-05-06 12:25 | 22.30081 | 113.90641 | 36 ft | 11 kts | 249° |
| 2026-05-06 12:25 | 22.30051 | 113.90555 | 36 ft | 13 kts | 251° |
| 2026-05-06 12:26 | 22.30017 | 113.90451 | 36 ft | 16 kts | 250° |
| 2026-05-06 12:26 | 22.29978 | 113.90331 | 36 ft | 18 kts | 250° |
| 2026-05-06 12:26 | 22.29934 | 113.90198 | 36 ft | 20 kts | 251° |
| 2026-05-06 12:26 | 22.29887 | 113.90050 | 35 ft | 22 kts | 251° |
| 2026-05-06 12:27 | 22.29837 | 113.89891 | 36 ft | 23 kts | 251° |
| 2026-05-06 12:27 | 22.29779 | 113.89776 | 36 ft | 14 kts | 204° |
| 2026-05-06 12:27 | 22.29681 | 113.89793 | 36 ft | 15 kts | 160° |
| 2026-05-06 12:27 | 22.29647 | 113.89878 | 36 ft | 13 kts | 79° |
| 2026-05-06 12:28 | 22.29677 | 113.89975 | 36 ft | 15 kts | 70° |
| 2026-05-06 12:28 | 22.29715 | 113.90093 | 35 ft | 43 kts | 71° |
| 2026-05-06 12:28 | 22.29892 | 113.90644 | 35 ft | 110 kts | 71° |
| 2026-05-06 12:28 | 22.30210 | 113.91634 | 48 ft | 163 kts | 72° |
| 2026-05-06 12:29 | 22.30587 | 113.92781 | 679 ft | 162 kts | 73° |
| 2026-05-06 12:29 | 22.30699 | 113.93983 | 1278 ft | 167 kts | 102° |
| 2026-05-06 12:29 | 22.30115 | 113.95080 | 1644 ft | 177 kts | 128° |
| 2026-05-06 12:29 | 22.29303 | 113.96182 | 1841 ft | 198 kts | 126° |
| 2026-05-06 12:30 | 22.28441 | 113.97429 | 2144 ft | 216 kts | 126° |
| 2026-05-06 12:30 | 22.27533 | 113.98819 | 2436 ft | 236 kts | 125° |
| 2026-05-06 12:30 | 22.26584 | 114.00328 | 2848 ft | 249 kts | 124° |
| 2026-05-06 12:30 | 22.25610 | 114.01911 | 3355 ft | 258 kts | 125° |
| 2026-05-06 12:31 | 22.24611 | 114.03547 | 3903 ft | 263 kts | 125° |
| 2026-05-06 12:31 | 22.23597 | 114.05207 | 4495 ft | 267 kts | 125° |
| 2026-05-06 12:31 | 22.22566 | 114.06893 | 5070 ft | 272 kts | 125° |
| 2026-05-06 12:31 | 22.21513 | 114.08614 | 5608 ft | 278 kts | 125° |
| 2026-05-06 12:32 | 22.20431 | 114.10376 | 6166 ft | 283 kts | 125° |
| 2026-05-06 12:32 | 22.19336 | 114.12155 | 6732 ft | 286 kts | 125° |
| 2026-05-06 12:32 | 22.18227 | 114.13954 | 7283 ft | 290 kts | 125° |
| 2026-05-06 12:32 | 22.17104 | 114.15775 | 7830 ft | 293 kts | 125° |
| 2026-05-06 12:33 | 22.15967 | 114.17623 | 8374 ft | 297 kts | 126° |
| 2026-05-06 12:33 | 22.14815 | 114.19490 | 8921 ft | 301 kts | 125° |
| 2026-05-06 12:33 | 22.13646 | 114.21379 | 9503 ft | 305 kts | 125° |
| 2026-05-06 12:33 | 22.12464 | 114.23289 | 10044 ft | 308 kts | 125° |
| 2026-05-06 12:34 | 22.11253 | 114.25244 | 10357 ft | 320 kts | 125° |
| 2026-05-06 12:34 | 22.09987 | 114.27287 | 10593 ft | 333 kts | 125° |
| 2026-05-06 12:34 | 22.08685 | 114.29389 | 10841 ft | 346 kts | 125° |
| 2026-05-06 12:34 | 22.07322 | 114.31591 | 11074 ft | 359 kts | 125° |
| 2026-05-06 12:35 | 22.05910 | 114.33871 | 11271 ft | 370 kts | 124° |
| 2026-05-06 12:35 | 22.04460 | 114.36214 | 11491 ft | 381 kts | 124° |
| 2026-05-06 12:35 | 22.02967 | 114.38625 | 11680 ft | 391 kts | 124° |
| 2026-05-06 12:35 | 22.01439 | 114.41089 | 11906 ft | 399 kts | 124° |
| 2026-05-06 12:36 | 21.99884 | 114.43598 | 12242 ft | 404 kts | 124° |
| 2026-05-06 12:36 | 21.98315 | 114.46127 | 12590 ft | 407 kts | 124° |
| 2026-05-06 12:36 | 21.96734 | 114.48675 | 13001 ft | 409 kts | 124° |
| 2026-05-06 12:36 | 21.95164 | 114.51203 | 13370 ft | 412 kts | 124° |
| 2026-05-06 12:37 | 21.93561 | 114.53783 | 13723 ft | 415 kts | 124° |
| 2026-05-06 12:37 | 21.91950 | 114.56373 | 14064 ft | 417 kts | 124° |
| 2026-05-06 12:37 | 21.90329 | 114.58979 | 14413 ft | 419 kts | 124° |
| 2026-05-06 12:37 | 21.88704 | 114.61589 | 14763 ft | 421 kts | 124° |
| 2026-05-06 12:38 | 21.87064 | 114.64222 | 15097 ft | 423 kts | 124° |
| 2026-05-06 12:38 | 21.85417 | 114.66865 | 15471 ft | 424 kts | 124° |
| 2026-05-06 12:38 | 21.83766 | 114.69513 | 15820 ft | 426 kts | 125° |
| 2026-05-06 12:38 | 21.82108 | 114.72171 | 16157 ft | 428 kts | 125° |
| 2026-05-06 12:39 | 21.80440 | 114.74844 | 16510 ft | 430 kts | 125° |
| 2026-05-06 12:39 | 21.78789 | 114.77491 | 16884 ft | 431 kts | 125° |
| 2026-05-06 12:39 | 21.77161 | 114.80219 | 17207 ft | 434 kts | 121° |
| 2026-05-06 12:39 | 21.75804 | 114.83141 | 17550 ft | 437 kts | 114° |
| 2026-05-06 12:40 | 21.74855 | 114.86260 | 17919 ft | 440 kts | 104° |
| 2026-05-06 12:40 | 21.74385 | 114.89522 | 18235 ft | 443 kts | 96° |
| 2026-05-06 12:40 | 21.74215 | 114.92845 | 18499 ft | 446 kts | 92° |
| 2026-05-06 12:40 | 21.74186 | 114.96189 | 18789 ft | 448 kts | 90° |
| 2026-05-06 12:41 | 21.74220 | 114.99548 | 19057 ft | 450 kts | 89° |
| 2026-05-06 12:41 | 21.74271 | 115.02920 | 19336 ft | 452 kts | 89° |
| 2026-05-06 12:41 | 21.74314 | 115.06294 | 19615 ft | 453 kts | 90° |
| 2026-05-06 12:41 | 21.74341 | 115.09706 | 19869 ft | 456 kts | 90° |
| 2026-05-06 12:42 | 21.74355 | 115.13124 | 20132 ft | 458 kts | 90° |
| 2026-05-06 12:42 | 21.74357 | 115.16507 | 20396 ft | 460 kts | 90° |
| 2026-05-06 12:42 | 21.74353 | 115.19997 | 20647 ft | 462 kts | 90° |
| 2026-05-06 12:42 | 21.74346 | 115.23414 | 20893 ft | 464 kts | 90° |
| 2026-05-06 12:43 | 21.74338 | 115.26897 | 21145 ft | 466 kts | 90° |
| 2026-05-06 12:43 | 21.74329 | 115.30392 | 21398 ft | 468 kts | 90° |
| 2026-05-06 12:43 | 21.74320 | 115.33906 | 21646 ft | 470 kts | 90° |
| 2026-05-06 12:43 | 21.74310 | 115.37430 | 21868 ft | 473 kts | 90° |
| 2026-05-06 12:44 | 21.74301 | 115.40968 | 22107 ft | 475 kts | 90° |
| 2026-05-06 12:44 | 21.74291 | 115.44541 | 22351 ft | 477 kts | 90° |
| 2026-05-06 12:44 | 21.74280 | 115.48121 | 22594 ft | 479 kts | 90° |
| 2026-05-06 12:44 | 21.74268 | 115.51728 | 22827 ft | 482 kts | 90° |
| 2026-05-06 12:45 | 21.74256 | 115.55341 | 23052 ft | 484 kts | 90° |
| 2026-05-06 12:45 | 21.74242 | 115.58970 | 23285 ft | 486 kts | 90° |
| 2026-05-06 12:45 | 21.74211 | 115.66230 | 23693 ft | 490 kts | 90° |
| 2026-05-06 12:46 | 21.74198 | 115.69909 | 23876 ft | 492 kts | 90° |
| 2026-05-06 12:46 | 21.74184 | 115.73592 | 24088 ft | 493 kts | 90° |
| 2026-05-06 12:46 | 21.74169 | 115.77285 | 24293 ft | 494 kts | 90° |
| 2026-05-06 12:46 | 21.74153 | 115.80983 | 24493 ft | 495 kts | 90° |
| 2026-05-06 12:47 | 21.74135 | 115.84711 | 24695 ft | 496 kts | 90° |
| 2026-05-06 12:47 | 21.74116 | 115.88429 | 24887 ft | 498 kts | 90° |
| 2026-05-06 12:47 | 21.74096 | 115.92160 | 25091 ft | 499 kts | 90° |
| 2026-05-06 12:47 | 21.74076 | 115.95854 | 25292 ft | 500 kts | 90° |
| 2026-05-06 12:48 | 21.74054 | 115.99635 | 25475 ft | 501 kts | 90° |
| 2026-05-06 12:48 | 21.74032 | 116.03359 | 25688 ft | 502 kts | 90° |
| 2026-05-06 12:48 | 21.74009 | 116.07117 | 25872 ft | 503 kts | 90° |
| 2026-05-06 12:48 | 21.73984 | 116.10888 | 26057 ft | 505 kts | 90° |
| 2026-05-06 12:49 | 21.73959 | 116.14662 | 26243 ft | 506 kts | 90° |
| 2026-05-06 12:49 | 21.73933 | 116.18454 | 26436 ft | 507 kts | 90° |
| 2026-05-06 12:49 | 21.73906 | 116.22245 | 26623 ft | 508 kts | 90° |
| 2026-05-06 12:49 | 21.73878 | 116.26054 | 26809 ft | 509 kts | 90° |
| 2026-05-06 12:50 | 21.73849 | 116.29888 | 27015 ft | 510 kts | 90° |
| 2026-05-06 12:50 | 21.73820 | 116.33718 | 27196 ft | 512 kts | 90° |
| 2026-05-06 12:50 | 21.73789 | 116.37555 | 27379 ft | 513 kts | 90° |
| 2026-05-06 12:50 | 21.73757 | 116.41399 | 27568 ft | 514 kts | 90° |
| 2026-05-06 12:51 | 21.73725 | 116.45249 | 27744 ft | 515 kts | 90° |
| 2026-05-06 12:51 | 21.73691 | 116.49117 | 27938 ft | 517 kts | 90° |
| 2026-05-06 12:51 | 21.73656 | 116.52978 | 28117 ft | 518 kts | 90° |
| 2026-05-06 12:51 | 21.73621 | 116.56864 | 28292 ft | 519 kts | 90° |
| 2026-05-06 12:52 | 21.73584 | 116.60708 | 28465 ft | 520 kts | 90° |
| 2026-05-06 12:52 | 21.73547 | 116.64612 | 28632 ft | 522 kts | 90° |
| 2026-05-06 12:52 | 21.73508 | 116.68513 | 28802 ft | 523 kts | 90° |
| 2026-05-06 12:52 | 21.73469 | 116.72437 | 28962 ft | 524 kts | 90° |
| 2026-05-06 12:53 | 21.73618 | 116.76350 | 29124 ft | 525 kts | 83° |
| 2026-05-06 12:53 | 21.74268 | 116.80231 | 29284 ft | 525 kts | 74° |
| 2026-05-06 12:53 | 21.75371 | 116.83978 | 29443 ft | 526 kts | 69° |
| 2026-05-06 12:53 | 21.76622 | 116.87669 | 29599 ft | 526 kts | 68° |
| 2026-05-06 12:54 | 21.77951 | 116.91351 | 29773 ft | 527 kts | 67° |
| 2026-05-06 12:54 | 21.79309 | 116.95019 | 29930 ft | 528 kts | 67° |
| 2026-05-06 12:54 | 21.80677 | 116.98699 | 30076 ft | 530 kts | 67° |
| 2026-05-06 12:54 | 21.82022 | 117.02343 | 30236 ft | 531 kts | 67° |
| 2026-05-06 12:55 | 21.83382 | 117.06057 | 30377 ft | 532 kts | 67° |
| 2026-05-06 12:55 | 21.84733 | 117.09773 | 30550 ft | 532 kts | 67° |
| 2026-05-06 12:55 | 21.86072 | 117.13480 | 30787 ft | 531 kts | 67° |
| 2026-05-06 12:55 | 21.87408 | 117.17190 | 31040 ft | 530 kts | 67° |
| 2026-05-06 12:56 | 21.88739 | 117.20893 | 31345 ft | 528 kts | 67° |
| 2026-05-06 12:56 | 21.90061 | 117.24573 | 31632 ft | 526 kts | 67° |
| 2026-05-06 12:56 | 21.91381 | 117.28250 | 31890 ft | 525 kts | 67° |
| 2026-05-06 12:56 | 21.92682 | 117.31875 | 32137 ft | 525 kts | 67° |
| 2026-05-06 12:57 | 21.93996 | 117.35538 | 32394 ft | 524 kts | 67° |
| 2026-05-06 12:57 | 21.95309 | 117.39200 | 32666 ft | 523 kts | 67° |
| 2026-05-06 12:57 | 21.96615 | 117.42844 | 32936 ft | 522 kts | 67° |
| 2026-05-06 12:57 | 21.97924 | 117.46501 | 33199 ft | 521 kts | 67° |
| 2026-05-06 12:58 | 21.99393 | 117.50072 | 33446 ft | 519 kts | 60° |
| 2026-05-06 12:58 | 22.01154 | 117.53459 | 33735 ft | 517 kts | 58° |
| 2026-05-06 12:58 | 22.02960 | 117.56749 | 34014 ft | 516 kts | 57° |
| 2026-05-06 12:58 | 22.04835 | 117.60069 | 34263 ft | 515 kts | 56° |
| 2026-05-06 12:59 | 22.06702 | 117.63335 | 34502 ft | 515 kts | 56° |
| 2026-05-06 12:59 | 22.08579 | 117.66609 | 34749 ft | 514 kts | 56° |
| 2026-05-06 12:59 | 22.10458 | 117.69894 | 34994 ft | 514 kts | 56° |
| 2026-05-06 12:59 | 22.12330 | 117.73177 | 35233 ft | 513 kts | 56° |
| 2026-05-06 13:00 | 22.14194 | 117.76458 | 35437 ft | 513 kts | 56° |
| 2026-05-06 13:00 | 22.16056 | 117.79744 | 35684 ft | 513 kts | 56° |
| 2026-05-06 13:00 | 22.17912 | 117.83024 | 35908 ft | 513 kts | 56° |
| 2026-05-06 13:00 | 22.19768 | 117.86308 | 36129 ft | 512 kts | 56° |
| 2026-05-06 13:01 | 22.21635 | 117.89614 | 36358 ft | 512 kts | 56° |
| 2026-05-06 13:01 | 22.23458 | 117.92845 | 36602 ft | 511 kts | 56° |
| 2026-05-06 13:01 | 22.25309 | 117.96126 | 36823 ft | 511 kts | 56° |
| 2026-05-06 13:01 | 22.27156 | 117.99403 | 37044 ft | 510 kts | 56° |
| 2026-05-06 13:02 | 22.29005 | 118.02674 | 37272 ft | 510 kts | 55° |
| 2026-05-06 13:02 | 22.30883 | 118.05921 | 37489 ft | 509 kts | 54° |
| 2026-05-06 13:02 | 22.32774 | 118.09147 | 37707 ft | 508 kts | 54° |
| 2026-05-06 13:02 | 22.34673 | 118.12373 | 37912 ft | 508 kts | 54° |
| 2026-05-06 13:03 | 22.36569 | 118.15599 | 38131 ft | 508 kts | 54° |
| 2026-05-06 13:03 | 22.38457 | 118.18821 | 38327 ft | 507 kts | 54° |
| 2026-05-06 13:03 | 22.40343 | 118.22051 | 38510 ft | 507 kts | 54° |
| 2026-05-06 13:03 | 22.42208 | 118.25295 | 38681 ft | 507 kts | 54° |
| 2026-05-06 13:04 | 22.44053 | 118.28546 | 38841 ft | 507 kts | 55° |
| 2026-05-06 13:04 | 22.45893 | 118.31809 | 38981 ft | 506 kts | 55° |
| 2026-05-06 13:04 | 22.47703 | 118.35023 | 39122 ft | 506 kts | 55° |
| 2026-05-06 13:04 | 22.49537 | 118.38277 | 39260 ft | 506 kts | 55° |
| 2026-05-06 13:05 | 22.51371 | 118.41529 | 39408 ft | 506 kts | 55° |
| 2026-05-06 13:05 | 22.53200 | 118.44771 | 39522 ft | 505 kts | 55° |
| 2026-05-06 13:05 | 22.55036 | 118.48024 | 39658 ft | 505 kts | 55° |
| 2026-05-06 13:05 | 22.56865 | 118.51265 | 39798 ft | 504 kts | 55° |
| 2026-05-06 13:06 | 22.58680 | 118.54478 | 39903 ft | 504 kts | 54° |
| 2026-05-06 13:06 | 22.60518 | 118.57708 | 40023 ft | 503 kts | 54° |
| 2026-05-06 13:06 | 22.62362 | 118.60938 | 40143 ft | 503 kts | 54° |
| 2026-05-06 13:07 | 22.66038 | 118.67374 | 40358 ft | 502 kts | 54° |
| 2026-05-06 13:07 | 22.67877 | 118.70601 | 40464 ft | 502 kts | 54° |
| 2026-05-06 13:07 | 22.69708 | 118.73819 | 40565 ft | 502 kts | 54° |
| 2026-05-06 13:08 | 22.73366 | 118.80262 | 40757 ft | 501 kts | 54° |
| 2026-05-06 13:08 | 22.76403 | 118.85617 | 40903 ft | 501 kts | 54° |
| 2026-05-06 13:09 | 22.80064 | 118.92080 | 40927 ft | 504 kts | 54° |
| 2026-05-06 13:09 | 22.83743 | 118.98582 | 40982 ft | 506 kts | 54° |
| 2026-05-06 13:10 | 22.87419 | 119.05090 | 40982 ft | 506 kts | 54° |
| 2026-05-06 13:10 | 22.91096 | 119.11607 | 40985 ft | 506 kts | 54° |
| 2026-05-06 13:11 | 22.94766 | 119.18120 | 40982 ft | 506 kts | 55° |
| 2026-05-06 13:11 | 22.98409 | 119.24592 | 40985 ft | 506 kts | 55° |
| 2026-05-06 13:12 | 23.02075 | 119.31113 | 40984 ft | 506 kts | 54° |
| 2026-05-06 13:12 | 23.05745 | 119.37650 | 40977 ft | 506 kts | 55° |
| 2026-05-06 13:13 | 23.09421 | 119.44205 | 40979 ft | 506 kts | 55° |
| 2026-05-06 13:13 | 23.13063 | 119.50710 | 40977 ft | 506 kts | 55° |
| 2026-05-06 13:14 | 23.16723 | 119.57254 | 40975 ft | 506 kts | 55° |
| 2026-05-06 13:14 | 23.20381 | 119.63798 | 40971 ft | 507 kts | 55° |
| 2026-05-06 13:15 | 23.24045 | 119.70359 | 40970 ft | 507 kts | 54° |
| 2026-05-06 13:15 | 23.27708 | 119.76929 | 40971 ft | 507 kts | 55° |
| 2026-05-06 13:16 | 23.31352 | 119.83471 | 40982 ft | 507 kts | 54° |
| 2026-05-06 13:16 | 23.35039 | 119.90034 | 40976 ft | 506 kts | 52° |
| 2026-05-06 13:17 | 23.39568 | 119.95785 | 40979 ft | 499 kts | 40° |
| 2026-05-06 13:17 | 23.44560 | 120.01035 | 40978 ft | 497 kts | 38° |
| 2026-05-06 13:18 | 23.49580 | 120.06146 | 40975 ft | 497 kts | 38° |
| 2026-05-06 13:18 | 23.54640 | 120.11316 | 40976 ft | 498 kts | 38° |
| 2026-05-06 13:19 | 23.59691 | 120.16515 | 40976 ft | 498 kts | 38° |
| 2026-05-06 13:19 | 23.64725 | 120.21717 | 40984 ft | 498 kts | 39° |
| 2026-05-06 13:20 | 23.69755 | 120.26924 | 40971 ft | 498 kts | 38° |
| 2026-05-06 13:20 | 23.74786 | 120.32136 | 40974 ft | 498 kts | 38° |
| 2026-05-06 13:21 | 23.79782 | 120.37316 | 40974 ft | 498 kts | 38° |
| 2026-05-06 13:21 | 23.84816 | 120.42542 | 40974 ft | 498 kts | 38° |
| 2026-05-06 13:22 | 23.89843 | 120.47766 | 40974 ft | 498 kts | 38° |
| 2026-05-06 13:22 | 23.94854 | 120.53016 | 40980 ft | 499 kts | 39° |
| 2026-05-06 13:23 | 23.99860 | 120.58302 | 40983 ft | 499 kts | 39° |
| 2026-05-06 13:23 | 24.04849 | 120.63576 | 40988 ft | 499 kts | 39° |
| 2026-05-06 13:24 | 24.09809 | 120.68821 | 41010 ft | 499 kts | 39° |
| 2026-05-06 13:24 | 24.14805 | 120.74108 | 41001 ft | 498 kts | 39° |
| 2026-05-06 13:25 | 24.19798 | 120.79397 | 41002 ft | 498 kts | 39° |
| 2026-05-06 13:25 | 24.24752 | 120.84651 | 41006 ft | 498 kts | 39° |
| 2026-05-06 13:26 | 24.29731 | 120.89938 | 41006 ft | 498 kts | 39° |
| 2026-05-06 13:26 | 24.34719 | 120.95241 | 41012 ft | 498 kts | 39° |
| 2026-05-06 13:27 | 24.39704 | 121.00547 | 41017 ft | 499 kts | 39° |
| 2026-05-06 13:27 | 24.44309 | 121.06308 | 41026 ft | 504 kts | 45° |
| 2026-05-06 13:28 | 24.48690 | 121.12283 | 41025 ft | 505 kts | 46° |
| 2026-05-06 13:28 | 24.53048 | 121.18335 | 41019 ft | 505 kts | 46° |
| 2026-05-06 13:29 | 24.57383 | 121.24349 | 41033 ft | 505 kts | 46° |
| 2026-05-06 13:29 | 24.61751 | 121.30395 | 41045 ft | 504 kts | 46° |
| 2026-05-06 13:30 | 24.66122 | 121.36444 | 41046 ft | 504 kts | 46° |
| 2026-05-06 13:30 | 24.70484 | 121.42486 | 41033 ft | 504 kts | 46° |
| 2026-05-06 13:31 | 24.74821 | 121.48505 | 41026 ft | 504 kts | 47° |
| 2026-05-06 13:31 | 24.79189 | 121.54574 | 40992 ft | 504 kts | 47° |
| 2026-05-06 13:32 | 24.83518 | 121.60598 | 40991 ft | 505 kts | 47° |
| 2026-05-06 13:32 | 24.87876 | 121.66672 | 40982 ft | 505 kts | 47° |
| 2026-05-06 13:33 | 24.92277 | 121.72702 | 40980 ft | 504 kts | 45° |
| 2026-05-06 13:33 | 24.96879 | 121.78518 | 40983 ft | 502 kts | 43° |
| 2026-05-06 13:34 | 25.01486 | 121.84264 | 40989 ft | 502 kts | 44° |
| 2026-05-06 13:34 | 25.06090 | 121.90083 | 41003 ft | 503 kts | 44° |
| 2026-05-06 13:35 | 25.10669 | 121.95927 | 41003 ft | 503 kts | 44° |
| 2026-05-06 13:35 | 25.15234 | 122.01782 | 41016 ft | 503 kts | 45° |
| 2026-05-06 13:36 | 25.19775 | 122.07671 | 40999 ft | 503 kts | 45° |
| 2026-05-06 13:36 | 25.24293 | 122.13549 | 41006 ft | 503 kts | 45° |
| 2026-05-06 13:37 | 25.28833 | 122.19454 | 41008 ft | 504 kts | 45° |
| 2026-05-06 13:37 | 25.33374 | 122.25364 | 41005 ft | 504 kts | 45° |
| 2026-05-06 13:38 | 25.37914 | 122.31278 | 41003 ft | 503 kts | 45° |
| 2026-05-06 13:38 | 25.42446 | 122.37187 | 41004 ft | 503 kts | 45° |
| 2026-05-06 13:39 | 25.46972 | 122.43098 | 41005 ft | 504 kts | 45° |
| 2026-05-06 13:39 | 25.51506 | 122.49028 | 41004 ft | 504 kts | 45° |
| 2026-05-06 13:40 | 25.56021 | 122.54908 | 41013 ft | 504 kts | 45° |
| 2026-05-06 13:40 | 25.60573 | 122.60813 | 41012 ft | 503 kts | 45° |
| 2026-05-06 13:41 | 25.65131 | 122.66738 | 41008 ft | 504 kts | 45° |
| 2026-05-06 13:41 | 25.69682 | 122.72669 | 41012 ft | 504 kts | 45° |
| 2026-05-06 13:42 | 25.74200 | 122.78567 | 41031 ft | 504 kts | 45° |
| 2026-05-06 13:42 | 25.78736 | 122.84497 | 41015 ft | 504 kts | 45° |
| 2026-05-06 13:43 | 25.83277 | 122.90440 | 41017 ft | 504 kts | 45° |
| 2026-05-06 13:43 | 25.87784 | 122.96346 | 41020 ft | 504 kts | 45° |
| 2026-05-06 13:44 | 25.92324 | 123.02303 | 41017 ft | 504 kts | 45° |
| 2026-05-06 13:44 | 25.96852 | 123.08255 | 41024 ft | 504 kts | 45° |
| 2026-05-06 13:45 | 26.01363 | 123.14197 | 41021 ft | 504 kts | 45° |
| 2026-05-06 13:45 | 26.08165 | 123.23169 | 41018 ft | 504 kts | 45° |
| 2026-05-06 13:46 | 26.12683 | 123.29137 | 41030 ft | 504 kts | 45° |
| 2026-05-06 13:46 | 26.17168 | 123.35069 | 41023 ft | 504 kts | 45° |
| 2026-05-06 13:47 | 26.21688 | 123.41055 | 41023 ft | 504 kts | 45° |
| 2026-05-06 13:47 | 26.26170 | 123.46999 | 41023 ft | 504 kts | 45° |
| 2026-05-06 13:48 | 26.30675 | 123.52981 | 41023 ft | 504 kts | 45° |
| 2026-05-06 13:48 | 26.35180 | 123.58972 | 41023 ft | 504 kts | 45° |
| 2026-05-06 13:49 | 26.39682 | 123.64965 | 41028 ft | 504 kts | 45° |
| 2026-05-06 13:49 | 26.44175 | 123.70956 | 41032 ft | 504 kts | 45° |
| 2026-05-06 13:50 | 26.48676 | 123.76965 | 41031 ft | 504 kts | 45° |
| 2026-05-06 13:50 | 26.53178 | 123.82983 | 41032 ft | 503 kts | 45° |
| 2026-05-06 13:51 | 26.57643 | 123.88961 | 41031 ft | 503 kts | 45° |
| 2026-05-06 13:51 | 26.62140 | 123.94988 | 41032 ft | 503 kts | 45° |
| 2026-05-06 13:52 | 26.66605 | 124.00985 | 41034 ft | 503 kts | 45° |
| 2026-05-06 13:52 | 26.70353 | 124.06011 | 41034 ft | 503 kts | 45° |
| 2026-05-06 13:53 | 26.74837 | 124.12003 | 41034 ft | 502 kts | 45° |
| 2026-05-06 13:53 | 26.79301 | 124.17978 | 41034 ft | 502 kts | 45° |
| 2026-05-06 13:54 | 26.83802 | 124.24017 | 41036 ft | 502 kts | 45° |
| 2026-05-06 13:54 | 26.88273 | 124.30029 | 41045 ft | 502 kts | 45° |
| 2026-05-06 13:55 | 26.92718 | 124.36012 | 41034 ft | 501 kts | 45° |
| 2026-05-06 13:55 | 26.97185 | 124.42032 | 41037 ft | 501 kts | 45° |
| 2026-05-06 13:56 | 27.01616 | 124.48020 | 41036 ft | 501 kts | 45° |
| 2026-05-06 13:56 | 27.06075 | 124.54037 | 41053 ft | 501 kts | 45° |
| 2026-05-06 13:57 | 27.10525 | 124.60049 | 41036 ft | 500 kts | 45° |
| 2026-05-06 13:57 | 27.14603 | 124.65569 | 41032 ft | 500 kts | 45° |
| 2026-05-06 13:58 | 27.19046 | 124.71592 | 41034 ft | 500 kts | 45° |
| 2026-05-06 13:58 | 27.23480 | 124.77612 | 41034 ft | 500 kts | 45° |
| 2026-05-06 13:59 | 27.27888 | 124.83607 | 41034 ft | 499 kts | 45° |
| 2026-05-06 13:59 | 27.32313 | 124.89631 | 41034 ft | 499 kts | 45° |
| 2026-05-06 14:00 | 27.36733 | 124.95657 | 41036 ft | 499 kts | 45° |
| 2026-05-06 14:00 | 27.41147 | 125.01677 | 41038 ft | 498 kts | 44° |
| 2026-05-06 14:01 | 27.45584 | 125.07666 | 41027 ft | 497 kts | 44° |
| 2026-05-06 14:01 | 27.50020 | 125.13638 | 41028 ft | 496 kts | 44° |
| 2026-05-06 14:02 | 27.54425 | 125.19584 | 41046 ft | 496 kts | 44° |
| 2026-05-06 14:02 | 27.58844 | 125.25564 | 41034 ft | 497 kts | 44° |
| 2026-05-06 14:03 | 27.63258 | 125.31550 | 41032 ft | 496 kts | 44° |
| 2026-05-06 14:03 | 27.67667 | 125.37536 | 41031 ft | 495 kts | 45° |
| 2026-05-06 14:04 | 27.72067 | 125.43518 | 41038 ft | 495 kts | 45° |
| 2026-05-06 14:04 | 27.76467 | 125.49508 | 41037 ft | 495 kts | 45° |
| 2026-05-06 14:05 | 27.80834 | 125.55462 | 41031 ft | 494 kts | 45° |
| 2026-05-06 14:05 | 27.85214 | 125.61442 | 41032 ft | 494 kts | 45° |
| 2026-05-06 14:06 | 27.89603 | 125.67442 | 41032 ft | 494 kts | 45° |
| 2026-05-06 14:06 | 27.93979 | 125.73432 | 41053 ft | 494 kts | 45° |
| 2026-05-06 14:07 | 27.98353 | 125.79429 | 41031 ft | 494 kts | 45° |
| 2026-05-06 14:07 | 28.02721 | 125.85426 | 41031 ft | 493 kts | 45° |
| 2026-05-06 14:08 | 28.07088 | 125.91429 | 41032 ft | 493 kts | 45° |
| 2026-05-06 14:08 | 28.11429 | 125.97406 | 41045 ft | 493 kts | 45° |
| 2026-05-06 14:09 | 28.15794 | 126.03423 | 41032 ft | 493 kts | 45° |
| 2026-05-06 14:09 | 28.20147 | 126.09434 | 41031 ft | 493 kts | 45° |
| 2026-05-06 14:10 | 28.24496 | 126.15446 | 41035 ft | 493 kts | 45° |
| 2026-05-06 14:10 | 28.28811 | 126.21421 | 41041 ft | 493 kts | 45° |
| 2026-05-06 14:11 | 28.33150 | 126.27437 | 41035 ft | 492 kts | 45° |
| 2026-05-06 14:11 | 28.37476 | 126.33445 | 41033 ft | 491 kts | 45° |
| 2026-05-06 14:12 | 28.41798 | 126.39454 | 41036 ft | 490 kts | 45° |
| 2026-05-06 14:12 | 28.46117 | 126.45468 | 41036 ft | 490 kts | 45° |
| 2026-05-06 14:13 | 28.50431 | 126.51483 | 41038 ft | 490 kts | 45° |
| 2026-05-06 14:13 | 28.54713 | 126.57462 | 41038 ft | 490 kts | 45° |
| 2026-05-06 14:14 | 28.59014 | 126.63477 | 41036 ft | 490 kts | 45° |
| 2026-05-06 14:14 | 28.63310 | 126.69495 | 41031 ft | 489 kts | 46° |
| 2026-05-06 14:15 | 28.67610 | 126.75524 | 41039 ft | 489 kts | 46° |
| 2026-05-06 14:15 | 28.71893 | 126.81541 | 41036 ft | 488 kts | 46° |
| 2026-05-06 14:16 | 28.76151 | 126.87529 | 41036 ft | 488 kts | 46° |
| 2026-05-06 14:16 | 28.80419 | 126.93541 | 41036 ft | 488 kts | 46° |
| 2026-05-06 14:17 | 28.84686 | 126.99560 | 41043 ft | 488 kts | 46° |
| 2026-05-06 14:17 | 28.88947 | 127.05578 | 41034 ft | 487 kts | 46° |
| 2026-05-06 14:18 | 28.93206 | 127.11604 | 41033 ft | 487 kts | 46° |
| 2026-05-06 14:18 | 28.97455 | 127.17623 | 41035 ft | 487 kts | 46° |
| 2026-05-06 14:19 | 29.01683 | 127.23622 | 41046 ft | 487 kts | 46° |
| 2026-05-06 14:19 | 29.05924 | 127.29648 | 41037 ft | 487 kts | 46° |
| 2026-05-06 14:20 | 29.10171 | 127.35691 | 41045 ft | 487 kts | 46° |
| 2026-05-06 14:20 | 29.14417 | 127.41742 | 41041 ft | 487 kts | 47° |
| 2026-05-06 14:21 | 29.18632 | 127.47757 | 41051 ft | 486 kts | 47° |
| 2026-05-06 14:21 | 29.22871 | 127.53814 | 41040 ft | 488 kts | 47° |
| 2026-05-06 14:22 | 29.27120 | 127.59895 | 41042 ft | 488 kts | 47° |
| 2026-05-06 14:22 | 29.31356 | 127.65967 | 41039 ft | 487 kts | 47° |
| 2026-05-06 14:23 | 29.35562 | 127.72006 | 41046 ft | 487 kts | 47° |
| 2026-05-06 14:23 | 29.39795 | 127.78089 | 41045 ft | 488 kts | 47° |
| 2026-05-06 14:24 | 29.44034 | 127.84192 | 41042 ft | 489 kts | 47° |
| 2026-05-06 14:24 | 29.48271 | 127.90303 | 41042 ft | 488 kts | 47° |
| 2026-05-06 14:25 | 29.52503 | 127.96414 | 41041 ft | 488 kts | 47° |
| 2026-05-06 14:25 | 29.56714 | 128.02499 | 41053 ft | 489 kts | 48° |
| 2026-05-06 14:26 | 29.60946 | 128.08620 | 41043 ft | 489 kts | 48° |
| 2026-05-06 14:26 | 29.65185 | 128.14762 | 41045 ft | 489 kts | 48° |
| 2026-05-06 14:27 | 29.69395 | 128.20871 | 41048 ft | 489 kts | 48° |
| 2026-05-06 14:27 | 29.73621 | 128.27011 | 41049 ft | 490 kts | 48° |
| 2026-05-06 14:28 | 29.77850 | 128.33167 | 41044 ft | 490 kts | 48° |
| 2026-05-06 14:28 | 29.82075 | 128.39328 | 41045 ft | 490 kts | 48° |
| 2026-05-06 14:29 | 29.86297 | 128.45492 | 41045 ft | 490 kts | 48° |
| 2026-05-06 14:29 | 29.90492 | 128.51626 | 41045 ft | 490 kts | 48° |
| 2026-05-06 14:30 | 29.94709 | 128.57801 | 41048 ft | 490 kts | 48° |
| 2026-05-06 14:30 | 29.98934 | 128.63998 | 41051 ft | 490 kts | 48° |
| 2026-05-06 14:31 | 30.03146 | 128.70182 | 41048 ft | 490 kts | 49° |
| 2026-05-06 14:31 | 30.07335 | 128.76346 | 41051 ft | 490 kts | 49° |
| 2026-05-06 14:32 | 30.11555 | 128.82565 | 41049 ft | 490 kts | 49° |
| 2026-05-06 14:32 | 30.15765 | 128.88778 | 41050 ft | 490 kts | 49° |
| 2026-05-06 14:33 | 30.19951 | 128.94962 | 41053 ft | 492 kts | 49° |
| 2026-05-06 14:33 | 30.24167 | 129.01206 | 41055 ft | 492 kts | 49° |
| 2026-05-06 14:34 | 30.28377 | 129.07454 | 41056 ft | 492 kts | 49° |
| 2026-05-06 14:34 | 30.32586 | 129.13701 | 41065 ft | 492 kts | 50° |
| 2026-05-06 14:35 | 30.36793 | 129.19955 | 41057 ft | 493 kts | 50° |
| 2026-05-06 14:35 | 30.40987 | 129.26202 | 41056 ft | 493 kts | 50° |
| 2026-05-06 14:36 | 30.44514 | 129.31465 | 41062 ft | 493 kts | 50° |
| 2026-05-06 14:36 | 30.48722 | 129.37752 | 41052 ft | 493 kts | 50° |
| 2026-05-06 14:37 | 30.52914 | 129.44023 | 41062 ft | 496 kts | 50° |
| 2026-05-06 14:37 | 30.57139 | 129.50356 | 41065 ft | 496 kts | 50° |
| 2026-05-06 14:38 | 30.61363 | 129.56699 | 41058 ft | 495 kts | 50° |
| 2026-05-06 14:38 | 30.65580 | 129.63039 | 41068 ft | 497 kts | 50° |
| 2026-05-06 14:39 | 30.69820 | 129.69423 | 41062 ft | 498 kts | 50° |
| 2026-05-06 14:39 | 30.74052 | 129.75809 | 41076 ft | 499 kts | 50° |
| 2026-05-06 14:40 | 30.78259 | 129.82165 | 41057 ft | 498 kts | 51° |
| 2026-05-06 14:40 | 30.82508 | 129.88594 | 41071 ft | 502 kts | 51° |
| 2026-05-06 14:41 | 30.86476 | 129.95333 | 41072 ft | 505 kts | 56° |
| 2026-05-06 14:41 | 30.90205 | 130.02267 | 41060 ft | 503 kts | 57° |
| 2026-05-06 14:42 | 30.93862 | 130.09180 | 41074 ft | 506 kts | 57° |
| 2026-05-06 14:42 | 30.97567 | 130.16195 | 41059 ft | 510 kts | 57° |
| 2026-05-06 14:43 | 31.01290 | 130.23239 | 41071 ft | 509 kts | 57° |
| 2026-05-06 14:43 | 31.04995 | 130.30247 | 41083 ft | 509 kts | 57° |
| 2026-05-06 14:44 | 31.08729 | 130.37325 | 41082 ft | 514 kts | 57° |
| 2026-05-06 14:45 | 31.14347 | 130.48002 | 41070 ft | 513 kts | 57° |
| 2026-05-06 14:45 | 31.18058 | 130.55065 | 41077 ft | 516 kts | 58° |
| 2026-05-06 14:46 | 31.21822 | 130.62247 | 41094 ft | 518 kts | 58° |
| 2026-05-06 14:46 | 31.25575 | 130.69423 | 41087 ft | 517 kts | 58° |
| 2026-05-06 14:47 | 31.29326 | 130.76608 | 41092 ft | 517 kts | 58° |
| 2026-05-06 14:47 | 31.33067 | 130.83785 | 41091 ft | 516 kts | 58° |
| 2026-05-06 14:48 | 31.36799 | 130.90959 | 41094 ft | 516 kts | 58° |
| 2026-05-06 14:48 | 31.40547 | 130.98172 | 41093 ft | 520 kts | 58° |
| 2026-05-06 14:49 | 31.44298 | 131.05409 | 41114 ft | 524 kts | 58° |
| 2026-05-06 14:49 | 31.48073 | 131.12709 | 41095 ft | 524 kts | 58° |
| 2026-05-06 14:50 | 31.51851 | 131.20023 | 41100 ft | 526 kts | 59° |
| 2026-05-06 14:50 | 31.55648 | 131.27392 | 41100 ft | 528 kts | 59° |
| 2026-05-06 14:51 | 31.59421 | 131.34730 | 41108 ft | 528 kts | 59° |
| 2026-05-06 14:51 | 31.63216 | 131.42133 | 41107 ft | 530 kts | 59° |
| 2026-05-06 14:52 | 31.67021 | 131.49567 | 41103 ft | 530 kts | 59° |
| 2026-05-06 14:52 | 31.70821 | 131.57003 | 41084 ft | 530 kts | 59° |